CheckWX is a tool to help pilots better visualize weather data.  It is not intended as a substitute for an official pre-flight weather briefing.

02:10:17 UTC

LYNI TAF
Nis Airport
Nis, Serbia
TAF LYNI 222300Z 2300/2324 08012KT CAVOK TX18/2313Z TN10/2304Z TEMPO 2301/2306 RA BECMG 2309/2311 16012G25KT BECMG 2321/2323 09012KT

Apr-23@
00:00 UTC

Apr-23 @ 00:00 UTC

Apr-23@
09:00 UTC

Apr-23 @ 09:00 UTC

TAF LYNI 222300Z 2300/2324 08012KT CAVOK TX18/2313Z TN10/2304Z
Wind
  • 080° at 12 KTS
Cloud Levels
  • No significant clouds

Apr-23@
01:00 UTC

Apr-23 @ 01:00 UTC

Apr-23@
06:00 UTC

Apr-23 @ 06:00 UTC

TEMPO 2301/2306 RA

Temporary

Temporary Changes expected for less than half the time period

Conditions
Rain

Apr-23@
09:00 UTC

Apr-23 @ 09:00 UTC

Apr-23@
21:00 UTC

Apr-23 @ 21:00 UTC

BECMG 2309/2311 16012G25KT

Becoming

Becoming Conditions expected by Tue, Apr 23, 2019 @ 11:00 UTC

Wind
  • 160° at 12 KTS
  • {Gusting to 25 KTS
Cloud Levels
  • No significant clouds

Apr-23@
21:00 UTC

Apr-23 @ 21:00 UTC

Apr-24@
00:00 UTC

Apr-24 @ 00:00 UTC

BECMG 2321/2323 09012KT

Becoming

Becoming Conditions expected by Tue, Apr 23, 2019 @ 23:00 UTC

Wind
  • 090° at 12 KTS
Cloud Levels
  • No significant clouds